Pagina principale
METAR-TAF:

METAR-TAF

Aeroporti :

Aeroporto di Klagenfurt

Klagenfurt, Austria

latitudine: 46-39N, longitudine: 014-20E, altezza: 448 m

Osservazione

Il bollettino è stato emesso 25 minuti fa, alle 11:50 UTC
Vento 3 kt da est/nord-est, variando fra nord/nord-est e est
Temperature -1°C
Umidità 59%
Pressione 1037 hPa
Visibilità 10 km o più
Poco nuvoloso ad un'altezza di 4000 ft

METAR: LOWK 091150Z AUTO 07003KT 030V100 9999 FEW040 M01/M08 Q1037 NOSIG

Ora: 13:15 (12:15 UTC)

Previsione

Il bollettino è stato emesso 1 ora e 0 minuti fa, alle 11:15 UTC
Previsione valida dal 09 alle 12 UTC al 10 alle 12 UTC
Vento 4 kt da direzioni variabili
Visibilità 10 km o più
Poco nuvoloso ad un'altezza di 4000 ft

TAF: LOWK 091115Z 0912/1012 VRB04KT 9999 FEW040 TX01/1012Z TNM10/1007Z

Osservazioni e previsioni meteorologiche di più di 4000 aeroporti (messaggi METAR e TAF).

Le stazioni disponibili sono rappresentate dai dischi gialli e rossi sulla carta.

Puntare il mouse per vedere il nome della stazione.

Clicca sopra per visualizzare le osservazioni e previsioni meteorologiche.

Per cambiare la mappa : fare clic sui pulsanti verdi con una croce nera per ingrandire, il pulsante verde con un trattino per diminuire, o sulla freccia verde per le mappe adiacenti.


METAR-TAF: